sensor_id;sensor_type;location;lat;lon;timestamp;P1;durP1;ratioP1;P2;durP2;ratioP2
4434;SDS011;46552;52.150;8.428;2023-06-14T00:00:38;9.13;;;3.27;;
4434;SDS011;46552;52.150;8.428;2023-06-14T00:03:07;10.83;;;3.13;;
4434;SDS011;46552;52.150;8.428;2023-06-14T00:05:35;11.00;;;3.20;;
4434;SDS011;46552;52.150;8.428;2023-06-14T00:08:05;6.77;;;2.40;;
4434;SDS011;46552;52.150;8.428;2023-06-14T00:10:33;4.93;;;2.87;;
4434;SDS011;46552;52.150;8.428;2023-06-14T00:13:00;15.53;;;3.50;;
4434;SDS011;46552;52.150;8.428;2023-06-14T00:15:32;5.63;;;3.13;;
4434;SDS011;46552;52.150;8.428;2023-06-14T00:17:59;5.93;;;3.00;;
4434;SDS011;46552;52.150;8.428;2023-06-14T00:20:26;12.07;;;2.73;;
4434;SDS011;46552;52.150;8.428;2023-06-14T00:22:55;9.10;;;3.70;;
4434;SDS011;46552;52.150;8.428;2023-06-14T00:25:23;6.60;;;3.57;;
4434;SDS011;46552;52.150;8.428;2023-06-14T00:27:51;9.00;;;3.83;;
4434;SDS011;46552;52.150;8.428;2023-06-14T00:30:18;9.63;;;3.60;;
4434;SDS011;46552;52.150;8.428;2023-06-14T00:32:47;5.43;;;2.60;;
4434;SDS011;46552;52.150;8.428;2023-06-14T00:35:15;8.67;;;3.07;;
4434;SDS011;46552;52.150;8.428;2023-06-14T00:37:42;13.13;;;4.00;;
4434;SDS011;46552;52.150;8.428;2023-06-14T00:40:10;7.90;;;3.70;;
4434;SDS011;46552;52.150;8.428;2023-06-14T00:42:37;7.63;;;2.83;;
4434;SDS011;46552;52.150;8.428;2023-06-14T00:45:05;4.70;;;2.60;;
4434;SDS011;46552;52.150;8.428;2023-06-14T00:47:32;7.60;;;3.63;;
4434;SDS011;46552;52.150;8.428;2023-06-14T00:50:01;6.40;;;3.17;;
4434;SDS011;46552;52.150;8.428;2023-06-14T00:52:29;8.17;;;2.80;;
4434;SDS011;46552;52.150;8.428;2023-06-14T00:54:57;8.07;;;3.77;;
4434;SDS011;46552;52.150;8.428;2023-06-14T00:57:25;5.60;;;3.20;;
4434;SDS011;46552;52.150;8.428;2023-06-14T00:59:54;6.77;;;3.90;;
4434;SDS011;46552;52.150;8.428;2023-06-14T01:02:22;8.27;;;3.53;;
4434;SDS011;46552;52.150;8.428;2023-06-14T01:04:50;6.83;;;3.63;;
4434;SDS011;46552;52.150;8.428;2023-06-14T01:07:21;6.07;;;3.00;;
4434;SDS011;46552;52.150;8.428;2023-06-14T01:10:06;7.10;;;3.60;;
4434;SDS011;46552;52.150;8.428;2023-06-14T01:12:44;9.73;;;3.50;;
4434;SDS011;46552;52.150;8.428;2023-06-14T01:15:17;6.07;;;3.37;;
4434;SDS011;46552;52.150;8.428;2023-06-14T01:17:45;10.00;;;3.20;;
4434;SDS011;46552;52.150;8.428;2023-06-14T01:20:16;6.40;;;3.23;;
4434;SDS011;46552;52.150;8.428;2023-06-14T01:22:49;10.23;;;3.90;;
4434;SDS011;46552;52.150;8.428;2023-06-14T01:25:17;5.90;;;3.00;;
4434;SDS011;46552;52.150;8.428;2023-06-14T01:27:47;7.27;;;3.40;;
4434;SDS011;46552;52.150;8.428;2023-06-14T01:30:15;4.37;;;2.93;;
4434;SDS011;46552;52.150;8.428;2023-06-14T01:32:43;9.60;;;3.93;;
4434;SDS011;46552;52.150;8.428;2023-06-14T01:35:11;9.37;;;4.07;;
4434;SDS011;46552;52.150;8.428;2023-06-14T01:37:39;9.47;;;3.40;;
4434;SDS011;46552;52.150;8.428;2023-06-14T01:40:10;6.53;;;3.47;;
4434;SDS011;46552;52.150;8.428;2023-06-14T01:42:40;14.20;;;3.80;;
4434;SDS011;46552;52.150;8.428;2023-06-14T01:45:08;12.80;;;4.63;;
4434;SDS011;46552;52.150;8.428;2023-06-14T01:47:36;13.13;;;4.50;;
4434;SDS011;46552;52.150;8.428;2023-06-14T01:50:05;5.67;;;3.70;;
4434;SDS011;46552;52.150;8.428;2023-06-14T01:52:33;6.30;;;3.60;;
4434;SDS011;46552;52.150;8.428;2023-06-14T01:55:01;12.87;;;3.93;;
4434;SDS011;46552;52.150;8.428;2023-06-14T01:57:30;11.40;;;4.00;;
4434;SDS011;46552;52.150;8.428;2023-06-14T01:59:57;11.33;;;3.43;;
4434;SDS011;46552;52.150;8.428;2023-06-14T02:02:25;6.10;;;3.90;;
4434;SDS011;46552;52.150;8.428;2023-06-14T02:04:52;6.13;;;3.43;;
4434;SDS011;46552;52.150;8.428;2023-06-14T02:07:22;8.67;;;3.53;;
4434;SDS011;46552;52.150;8.428;2023-06-14T02:09:50;10.73;;;3.80;;
4434;SDS011;46552;52.150;8.428;2023-06-14T02:12:17;7.63;;;3.77;;
4434;SDS011;46552;52.150;8.428;2023-06-14T02:14:46;5.13;;;3.57;;
4434;SDS011;46552;52.150;8.428;2023-06-14T02:17:14;13.17;;;4.30;;
4434;SDS011;46552;52.150;8.428;2023-06-14T02:19:41;7.83;;;4.30;;
4434;SDS011;46552;52.150;8.428;2023-06-14T02:22:08;7.17;;;3.63;;
4434;SDS011;46552;52.150;8.428;2023-06-14T02:24:35;10.30;;;3.63;;
4434;SDS011;46552;52.150;8.428;2023-06-14T02:27:03;13.90;;;3.67;;
4434;SDS011;46552;52.150;8.428;2023-06-14T02:29:31;12.53;;;5.10;;
4434;SDS011;46552;52.150;8.428;2023-06-14T02:32:01;4.90;;;3.47;;
4434;SDS011;46552;52.150;8.428;2023-06-14T02:34:28;6.03;;;3.43;;
4434;SDS011;46552;52.150;8.428;2023-06-14T02:36:56;8.67;;;4.37;;
4434;SDS011;46552;52.150;8.428;2023-06-14T02:39:23;6.90;;;3.43;;
4434;SDS011;46552;52.150;8.428;2023-06-14T02:41:51;14.03;;;4.30;;
4434;SDS011;46552;52.150;8.428;2023-06-14T02:44:18;7.07;;;4.07;;
4434;SDS011;46552;52.150;8.428;2023-06-14T02:46:46;9.87;;;4.20;;
4434;SDS011;46552;52.150;8.428;2023-06-14T02:49:15;13.83;;;4.10;;
4434;SDS011;46552;52.150;8.428;2023-06-14T02:51:43;5.60;;;3.50;;
4434;SDS011;46552;52.150;8.428;2023-06-14T02:54:10;5.70;;;3.70;;
4434;SDS011;46552;52.150;8.428;2023-06-14T02:56:38;12.63;;;4.50;;
4434;SDS011;46552;52.150;8.428;2023-06-14T02:59:07;13.83;;;4.60;;
4434;SDS011;46552;52.150;8.428;2023-06-14T03:01:34;7.77;;;4.20;;
4434;SDS011;46552;52.150;8.428;2023-06-14T03:04:06;6.10;;;4.40;;
4434;SDS011;46552;52.150;8.428;2023-06-14T03:06:35;7.90;;;4.40;;
4434;SDS011;46552;52.150;8.428;2023-06-14T03:09:02;8.90;;;4.20;;
4434;SDS011;46552;52.150;8.428;2023-06-14T03:11:30;8.87;;;4.93;;
4434;SDS011;46552;52.150;8.428;2023-06-14T03:13:58;11.50;;;5.03;;
4434;SDS011;46552;52.150;8.428;2023-06-14T03:16:25;9.03;;;4.30;;
4434;SDS011;46552;52.150;8.428;2023-06-14T03:18:54;8.20;;;4.33;;
4434;SDS011;46552;52.150;8.428;2023-06-14T03:21:21;6.10;;;3.50;;
4434;SDS011;46552;52.150;8.428;2023-06-14T03:23:50;13.77;;;3.70;;
4434;SDS011;46552;52.150;8.428;2023-06-14T03:26:18;8.93;;;3.27;;
4434;SDS011;46552;52.150;8.428;2023-06-14T03:28:45;18.70;;;5.00;;
4434;SDS011;46552;52.150;8.428;2023-06-14T03:31:13;9.00;;;4.67;;
4434;SDS011;46552;52.150;8.428;2023-06-14T03:33:41;8.23;;;4.00;;
4434;SDS011;46552;52.150;8.428;2023-06-14T03:36:08;10.10;;;3.97;;
4434;SDS011;46552;52.150;8.428;2023-06-14T03:38:36;15.77;;;4.33;;
4434;SDS011;46552;52.150;8.428;2023-06-14T03:41:04;6.90;;;3.50;;
4434;SDS011;46552;52.150;8.428;2023-06-14T03:43:31;9.20;;;4.03;;
4434;SDS011;46552;52.150;8.428;2023-06-14T03:45:59;9.47;;;5.00;;
4434;SDS011;46552;52.150;8.428;2023-06-14T03:48:27;9.10;;;4.20;;
4434;SDS011;46552;52.150;8.428;2023-06-14T03:50:54;12.13;;;3.93;;
4434;SDS011;46552;52.150;8.428;2023-06-14T03:53:22;11.80;;;4.30;;
4434;SDS011;46552;52.150;8.428;2023-06-14T03:55:49;15.43;;;4.93;;
4434;SDS011;46552;52.150;8.428;2023-06-14T03:58:19;17.13;;;6.37;;
4434;SDS011;46552;52.150;8.428;2023-06-14T04:00:46;18.23;;;4.70;;
4434;SDS011;46552;52.150;8.428;2023-06-14T04:03:14;12.43;;;5.10;;
4434;SDS011;46552;52.150;8.428;2023-06-14T04:05:41;11.53;;;4.30;;
4434;SDS011;46552;52.150;8.428;2023-06-14T04:08:09;8.07;;;4.07;;
4434;SDS011;46552;52.150;8.428;2023-06-14T04:10:39;7.83;;;4.03;;
4434;SDS011;46552;52.150;8.428;2023-06-14T04:13:07;6.03;;;3.73;;
4434;SDS011;46552;52.150;8.428;2023-06-14T04:15:38;11.37;;;3.90;;
4434;SDS011;46552;52.150;8.428;2023-06-14T04:18:07;10.50;;;3.53;;
4434;SDS011;46552;52.150;8.428;2023-06-14T04:20:34;10.13;;;5.07;;
4434;SDS011;46552;52.150;8.428;2023-06-14T04:23:11;8.57;;;3.60;;
4434;SDS011;46552;52.150;8.428;2023-06-14T04:25:39;9.90;;;4.40;;
4434;SDS011;46552;52.150;8.428;2023-06-14T04:28:10;6.00;;;3.13;;
4434;SDS011;46552;52.150;8.428;2023-06-14T04:30:41;11.93;;;4.00;;
4434;SDS011;46552;52.150;8.428;2023-06-14T04:33:10;7.07;;;3.27;;
4434;SDS011;46552;52.150;8.428;2023-06-14T04:35:37;6.10;;;4.00;;
4434;SDS011;46552;52.150;8.428;2023-06-14T04:38:05;10.03;;;4.30;;
4434;SDS011;46552;52.150;8.428;2023-06-14T04:40:34;10.40;;;4.13;;
4434;SDS011;46552;52.150;8.428;2023-06-14T04:43:07;5.20;;;3.30;;
4434;SDS011;46552;52.150;8.428;2023-06-14T04:45:37;9.33;;;3.50;;
4434;SDS011;46552;52.150;8.428;2023-06-14T04:48:06;7.13;;;3.40;;
4434;SDS011;46552;52.150;8.428;2023-06-14T04:50:33;5.87;;;3.77;;
4434;SDS011;46552;52.150;8.428;2023-06-14T04:53:01;13.40;;;4.03;;
4434;SDS011;46552;52.150;8.428;2023-06-14T04:55:29;7.50;;;3.60;;
4434;SDS011;46552;52.150;8.428;2023-06-14T04:57:58;6.50;;;3.10;;
4434;SDS011;46552;52.150;8.428;2023-06-14T05:00:25;7.87;;;2.87;;
4434;SDS011;46552;52.150;8.428;2023-06-14T05:02:52;5.37;;;3.90;;
4434;SDS011;46552;52.150;8.428;2023-06-14T05:05:21;9.57;;;3.60;;
4434;SDS011;46552;52.150;8.428;2023-06-14T05:07:49;6.47;;;3.57;;
4434;SDS011;46552;52.150;8.428;2023-06-14T05:10:16;5.90;;;4.03;;
4434;SDS011;46552;52.150;8.428;2023-06-14T05:12:44;13.53;;;3.67;;
4434;SDS011;46552;52.150;8.428;2023-06-14T05:15:13;9.57;;;3.40;;
4434;SDS011;46552;52.150;8.428;2023-06-14T05:17:41;8.43;;;4.07;;
4434;SDS011;46552;52.150;8.428;2023-06-14T05:20:08;6.90;;;3.40;;
4434;SDS011;46552;52.150;8.428;2023-06-14T05:22:38;7.63;;;3.57;;
4434;SDS011;46552;52.150;8.428;2023-06-14T05:25:05;4.97;;;3.40;;
4434;SDS011;46552;52.150;8.428;2023-06-14T05:27:33;4.40;;;2.53;;
4434;SDS011;46552;52.150;8.428;2023-06-14T05:30:02;11.57;;;3.20;;
4434;SDS011;46552;52.150;8.428;2023-06-14T05:32:30;4.10;;;2.63;;
4434;SDS011;46552;52.150;8.428;2023-06-14T05:34:58;5.60;;;3.47;;
4434;SDS011;46552;52.150;8.428;2023-06-14T05:37:25;10.83;;;3.83;;
4434;SDS011;46552;52.150;8.428;2023-06-14T05:39:55;3.90;;;2.80;;
4434;SDS011;46552;52.150;8.428;2023-06-14T05:42:22;5.93;;;2.73;;
4434;SDS011;46552;52.150;8.428;2023-06-14T05:44:50;11.20;;;3.30;;
4434;SDS011;46552;52.150;8.428;2023-06-14T05:47:17;6.67;;;3.03;;
4434;SDS011;46552;52.150;8.428;2023-06-14T05:49:45;6.13;;;2.40;;
4434;SDS011;46552;52.150;8.428;2023-06-14T05:52:14;6.20;;;3.67;;
4434;SDS011;46552;52.150;8.428;2023-06-14T05:54:41;6.77;;;2.37;;
4434;SDS011;46552;52.150;8.428;2023-06-14T05:57:11;4.17;;;2.47;;
4434;SDS011;46552;52.150;8.428;2023-06-14T05:59:38;5.10;;;2.67;;
4434;SDS011;46552;52.150;8.428;2023-06-14T06:02:05;7.87;;;3.10;;
4434;SDS011;46552;52.150;8.428;2023-06-14T06:04:33;7.50;;;2.87;;
4434;SDS011;46552;52.150;8.428;2023-06-14T06:07:01;4.70;;;2.20;;
4434;SDS011;46552;52.150;8.428;2023-06-14T06:09:28;4.10;;;2.80;;
4434;SDS011;46552;52.150;8.428;2023-06-14T06:11:56;4.00;;;2.60;;
4434;SDS011;46552;52.150;8.428;2023-06-14T06:14:24;5.07;;;2.50;;
4434;SDS011;46552;52.150;8.428;2023-06-14T06:16:51;5.37;;;2.50;;
4434;SDS011;46552;52.150;8.428;2023-06-14T06:19:19;9.53;;;2.53;;
4434;SDS011;46552;52.150;8.428;2023-06-14T06:21:46;6.40;;;2.27;;
4434;SDS011;46552;52.150;8.428;2023-06-14T06:24:13;6.43;;;3.20;;
4434;SDS011;46552;52.150;8.428;2023-06-14T06:26:40;5.50;;;2.93;;
4434;SDS011;46552;52.150;8.428;2023-06-14T06:29:08;3.77;;;2.43;;
4434;SDS011;46552;52.150;8.428;2023-06-14T06:31:37;10.97;;;3.10;;
4434;SDS011;46552;52.150;8.428;2023-06-14T06:34:04;6.63;;;2.40;;
4434;SDS011;46552;52.150;8.428;2023-06-14T06:36:31;7.10;;;3.20;;
4434;SDS011;46552;52.150;8.428;2023-06-14T06:39:00;6.13;;;2.93;;
4434;SDS011;46552;52.150;8.428;2023-06-14T06:41:34;15.33;;;3.50;;
4434;SDS011;46552;52.150;8.428;2023-06-14T06:44:02;4.03;;;2.73;;
4434;SDS011;46552;52.150;8.428;2023-06-14T06:46:30;6.93;;;2.30;;
4434;SDS011;46552;52.150;8.428;2023-06-14T06:49:00;7.50;;;2.70;;
4434;SDS011;46552;52.150;8.428;2023-06-14T06:51:27;4.93;;;2.70;;
4434;SDS011;46552;52.150;8.428;2023-06-14T06:53:55;8.13;;;2.83;;
4434;SDS011;46552;52.150;8.428;2023-06-14T06:56:22;6.93;;;3.47;;
4434;SDS011;46552;52.150;8.428;2023-06-14T06:58:50;4.80;;;2.70;;
4434;SDS011;46552;52.150;8.428;2023-06-14T07:01:18;8.03;;;2.17;;
4434;SDS011;46552;52.150;8.428;2023-06-14T07:03:46;10.40;;;2.70;;
4434;SDS011;46552;52.150;8.428;2023-06-14T07:06:15;7.77;;;2.60;;
4434;SDS011;46552;52.150;8.428;2023-06-14T07:08:43;6.77;;;2.00;;
4434;SDS011;46552;52.150;8.428;2023-06-14T07:11:13;4.63;;;1.93;;
4434;SDS011;46552;52.150;8.428;2023-06-14T07:13:40;5.10;;;1.80;;
4434;SDS011;46552;52.150;8.428;2023-06-14T07:16:07;2.97;;;1.73;;
4434;SDS011;46552;52.150;8.428;2023-06-14T07:18:35;4.83;;;1.50;;
4434;SDS011;46552;52.150;8.428;2023-06-14T07:21:03;3.63;;;1.63;;
4434;SDS011;46552;52.150;8.428;2023-06-14T07:23:32;2.93;;;1.93;;
4434;SDS011;46552;52.150;8.428;2023-06-14T07:25:59;5.80;;;1.70;;
4434;SDS011;46552;52.150;8.428;2023-06-14T07:28:26;3.50;;;1.70;;
4434;SDS011;46552;52.150;8.428;2023-06-14T07:30:53;2.60;;;1.50;;
4434;SDS011;46552;52.150;8.428;2023-06-14T07:33:21;5.23;;;1.73;;
4434;SDS011;46552;52.150;8.428;2023-06-14T07:35:48;6.23;;;1.80;;
4434;SDS011;46552;52.150;8.428;2023-06-14T07:38:17;3.90;;;1.60;;
4434;SDS011;46552;52.150;8.428;2023-06-14T07:40:46;9.23;;;2.33;;
4434;SDS011;46552;52.150;8.428;2023-06-14T07:43:13;4.80;;;1.67;;
4434;SDS011;46552;52.150;8.428;2023-06-14T07:45:41;4.27;;;1.83;;
4434;SDS011;46552;52.150;8.428;2023-06-14T07:48:09;5.70;;;2.23;;
4434;SDS011;46552;52.150;8.428;2023-06-14T07:50:36;5.33;;;1.60;;
4434;SDS011;46552;52.150;8.428;2023-06-14T07:53:03;2.83;;;1.63;;
4434;SDS011;46552;52.150;8.428;2023-06-14T07:55:31;5.53;;;2.33;;
4434;SDS011;46552;52.150;8.428;2023-06-14T07:58:03;6.13;;;2.63;;
4434;SDS011;46552;52.150;8.428;2023-06-14T08:00:31;9.33;;;2.43;;
4434;SDS011;46552;52.150;8.428;2023-06-14T08:02:58;4.30;;;2.30;;
4434;SDS011;46552;52.150;8.428;2023-06-14T08:05:26;5.90;;;2.07;;
4434;SDS011;46552;52.150;8.428;2023-06-14T08:07:54;6.00;;;1.93;;
4434;SDS011;46552;52.150;8.428;2023-06-14T08:10:21;12.30;;;1.90;;
4434;SDS011;46552;52.150;8.428;2023-06-14T08:12:50;4.60;;;2.10;;
4434;SDS011;46552;52.150;8.428;2023-06-14T08:15:18;4.50;;;1.40;;
4434;SDS011;46552;52.150;8.428;2023-06-14T08:17:45;3.13;;;1.57;;
4434;SDS011;46552;52.150;8.428;2023-06-14T08:20:13;3.60;;;1.53;;
4434;SDS011;46552;52.150;8.428;2023-06-14T08:22:43;3.57;;;1.73;;
4434;SDS011;46552;52.150;8.428;2023-06-14T08:25:12;5.67;;;2.40;;
4434;SDS011;46552;52.150;8.428;2023-06-14T08:27:40;6.20;;;2.03;;
4434;SDS011;46552;52.150;8.428;2023-06-14T08:30:08;6.60;;;2.70;;
4434;SDS011;46552;52.150;8.428;2023-06-14T08:32:37;3.73;;;1.97;;
4434;SDS011;46552;52.150;8.428;2023-06-14T08:35:04;5.87;;;1.87;;
4434;SDS011;46552;52.150;8.428;2023-06-14T08:37:32;5.87;;;2.17;;
4434;SDS011;46552;52.150;8.428;2023-06-14T08:40:00;7.97;;;2.37;;
4434;SDS011;46552;52.150;8.428;2023-06-14T08:42:30;3.17;;;1.70;;
4434;SDS011;46552;52.150;8.428;2023-06-14T08:44:59;7.53;;;2.33;;
4434;SDS011;46552;52.150;8.428;2023-06-14T08:47:27;7.30;;;1.93;;
4434;SDS011;46552;52.150;8.428;2023-06-14T08:50:03;5.10;;;1.93;;
4434;SDS011;46552;52.150;8.428;2023-06-14T08:52:32;3.10;;;1.80;;
4434;SDS011;46552;52.150;8.428;2023-06-14T08:55:05;4.70;;;1.87;;
4434;SDS011;46552;52.150;8.428;2023-06-14T08:57:34;4.60;;;2.07;;
4434;SDS011;46552;52.150;8.428;2023-06-14T09:00:04;7.73;;;2.30;;
4434;SDS011;46552;52.150;8.428;2023-06-14T09:02:37;5.50;;;1.90;;
4434;SDS011;46552;52.150;8.428;2023-06-14T09:05:10;3.50;;;1.90;;
4434;SDS011;46552;52.150;8.428;2023-06-14T09:07:39;5.43;;;2.00;;
4434;SDS011;46552;52.150;8.428;2023-06-14T09:10:07;7.73;;;2.27;;
4434;SDS011;46552;52.150;8.428;2023-06-14T09:12:36;5.00;;;2.40;;
4434;SDS011;46552;52.150;8.428;2023-06-14T09:15:04;6.67;;;2.10;;
4434;SDS011;46552;52.150;8.428;2023-06-14T09:17:34;4.47;;;2.30;;
4434;SDS011;46552;52.150;8.428;2023-06-14T09:20:01;2.40;;;1.33;;
4434;SDS011;46552;52.150;8.428;2023-06-14T09:22:34;3.77;;;1.70;;
4434;SDS011;46552;52.150;8.428;2023-06-14T09:25:03;6.00;;;2.67;;
4434;SDS011;46552;52.150;8.428;2023-06-14T09:27:30;3.93;;;2.10;;
4434;SDS011;46552;52.150;8.428;2023-06-14T09:29:58;4.73;;;1.83;;
4434;SDS011;46552;52.150;8.428;2023-06-14T09:32:26;4.03;;;2.27;;
4434;SDS011;46552;52.150;8.428;2023-06-14T09:34:53;4.23;;;2.13;;
4434;SDS011;46552;52.150;8.428;2023-06-14T09:37:27;7.60;;;1.90;;
4434;SDS011;46552;52.150;8.428;2023-06-14T09:39:57;4.13;;;2.10;;
4434;SDS011;46552;52.150;8.428;2023-06-14T09:42:25;5.27;;;1.60;;
4434;SDS011;46552;52.150;8.428;2023-06-14T09:44:54;6.53;;;2.43;;
4434;SDS011;46552;52.150;8.428;2023-06-14T09:47:23;6.83;;;2.60;;
4434;SDS011;46552;52.150;8.428;2023-06-14T09:49:51;6.43;;;1.93;;
4434;SDS011;46552;52.150;8.428;2023-06-14T09:52:20;5.70;;;1.83;;
4434;SDS011;46552;52.150;8.428;2023-06-14T09:54:48;9.17;;;2.17;;
4434;SDS011;46552;52.150;8.428;2023-06-14T09:57:17;3.60;;;1.90;;
4434;SDS011;46552;52.150;8.428;2023-06-14T09:59:48;5.83;;;1.90;;
4434;SDS011;46552;52.150;8.428;2023-06-14T10:02:18;3.43;;;1.83;;
4434;SDS011;46552;52.150;8.428;2023-06-14T10:04:53;3.40;;;2.30;;
4434;SDS011;46552;52.150;8.428;2023-06-14T10:07:26;3.40;;;1.90;;
4434;SDS011;46552;52.150;8.428;2023-06-14T10:09:55;3.80;;;2.00;;
4434;SDS011;46552;52.150;8.428;2023-06-14T10:12:26;4.93;;;1.60;;
4434;SDS011;46552;52.150;8.428;2023-06-14T10:14:53;5.40;;;1.40;;
4434;SDS011;46552;52.150;8.428;2023-06-14T10:17:26;3.83;;;2.30;;
4434;SDS011;46552;52.150;8.428;2023-06-14T10:20:06;2.20;;;1.30;;
4434;SDS011;46552;52.150;8.428;2023-06-14T10:22:44;3.97;;;1.87;;
4434;SDS011;46552;52.150;8.428;2023-06-14T10:25:26;4.47;;;1.80;;
4434;SDS011;46552;52.150;8.428;2023-06-14T10:28:03;7.60;;;1.50;;
4434;SDS011;46552;52.150;8.428;2023-06-14T10:33:34;6.97;;;1.90;;
4434;SDS011;46552;52.150;8.428;2023-06-14T10:39:04;3.90;;;1.60;;
4434;SDS011;46552;52.150;8.428;2023-06-14T10:41:34;6.03;;;1.80;;
4434;SDS011;46552;52.150;8.428;2023-06-14T10:47:10;8.20;;;1.70;;
4434;SDS011;46552;52.150;8.428;2023-06-14T10:49:49;4.33;;;2.33;;
4434;SDS011;46552;52.150;8.428;2023-06-14T10:52:20;3.13;;;1.80;;
4434;SDS011;46552;52.150;8.428;2023-06-14T10:55:05;11.53;;;1.60;;
4434;SDS011;46552;52.150;8.428;2023-06-14T10:57:36;3.53;;;1.93;;
4434;SDS011;46552;52.150;8.428;2023-06-14T11:00:07;4.80;;;2.03;;
4434;SDS011;46552;52.150;8.428;2023-06-14T11:02:50;7.27;;;2.00;;
4434;SDS011;46552;52.150;8.428;2023-06-14T11:05:25;6.93;;;2.37;;
4434;SDS011;46552;52.150;8.428;2023-06-14T11:07:57;6.37;;;1.73;;
4434;SDS011;46552;52.150;8.428;2023-06-14T11:10:37;2.80;;;1.40;;
4434;SDS011;46552;52.150;8.428;2023-06-14T11:13:05;5.00;;;1.50;;
4434;SDS011;46552;52.150;8.428;2023-06-14T11:15:34;2.60;;;1.67;;
4434;SDS011;46552;52.150;8.428;2023-06-14T11:18:03;4.70;;;2.00;;
4434;SDS011;46552;52.150;8.428;2023-06-14T11:20:32;2.57;;;1.90;;
4434;SDS011;46552;52.150;8.428;2023-06-14T11:23:01;2.87;;;1.60;;
4434;SDS011;46552;52.150;8.428;2023-06-14T11:25:28;8.50;;;1.77;;
4434;SDS011;46552;52.150;8.428;2023-06-14T11:27:56;3.10;;;2.30;;
4434;SDS011;46552;52.150;8.428;2023-06-14T11:30:24;5.40;;;1.70;;
4434;SDS011;46552;52.150;8.428;2023-06-14T11:32:54;7.27;;;1.70;;
4434;SDS011;46552;52.150;8.428;2023-06-14T11:35:22;3.03;;;1.70;;
4434;SDS011;46552;52.150;8.428;2023-06-14T11:37:52;4.33;;;1.63;;
4434;SDS011;46552;52.150;8.428;2023-06-14T11:40:22;3.60;;;1.63;;
4434;SDS011;46552;52.150;8.428;2023-06-14T11:42:53;2.90;;;1.67;;
4434;SDS011;46552;52.150;8.428;2023-06-14T11:45:25;6.63;;;1.93;;
4434;SDS011;46552;52.150;8.428;2023-06-14T11:47:53;4.50;;;2.00;;
4434;SDS011;46552;52.150;8.428;2023-06-14T11:50:22;3.50;;;2.00;;
4434;SDS011;46552;52.150;8.428;2023-06-14T11:52:53;2.87;;;1.60;;
4434;SDS011;46552;52.150;8.428;2023-06-14T11:55:20;3.37;;;1.67;;
4434;SDS011;46552;52.150;8.428;2023-06-14T11:57:48;5.27;;;2.07;;
4434;SDS011;46552;52.150;8.428;2023-06-14T12:00:16;3.50;;;1.77;;
4434;SDS011;46552;52.150;8.428;2023-06-14T12:02:56;2.70;;;1.77;;
4434;SDS011;46552;52.150;8.428;2023-06-14T12:05:24;3.77;;;1.80;;
4434;SDS011;46552;52.150;8.428;2023-06-14T12:07:57;4.23;;;1.40;;
4434;SDS011;46552;52.150;8.428;2023-06-14T12:10:25;5.00;;;1.90;;
4434;SDS011;46552;52.150;8.428;2023-06-14T12:12:56;5.87;;;1.67;;
4434;SDS011;46552;52.150;8.428;2023-06-14T12:15:24;5.90;;;1.50;;
4434;SDS011;46552;52.150;8.428;2023-06-14T12:17:56;3.40;;;1.63;;
4434;SDS011;46552;52.150;8.428;2023-06-14T12:20:28;3.67;;;1.80;;
4434;SDS011;46552;52.150;8.428;2023-06-14T12:22:57;3.10;;;1.50;;
4434;SDS011;46552;52.150;8.428;2023-06-14T12:25:26;3.53;;;1.63;;
4434;SDS011;46552;52.150;8.428;2023-06-14T12:27:56;3.13;;;1.80;;
4434;SDS011;46552;52.150;8.428;2023-06-14T12:30:23;4.40;;;2.13;;
4434;SDS011;46552;52.150;8.428;2023-06-14T12:32:51;4.67;;;1.70;;
4434;SDS011;46552;52.150;8.428;2023-06-14T12:35:19;2.77;;;1.67;;
4434;SDS011;46552;52.150;8.428;2023-06-14T12:37:46;6.03;;;2.10;;
4434;SDS011;46552;52.150;8.428;2023-06-14T12:40:13;3.40;;;1.80;;
4434;SDS011;46552;52.150;8.428;2023-06-14T12:42:41;7.17;;;1.97;;
4434;SDS011;46552;52.150;8.428;2023-06-14T12:45:10;4.27;;;1.67;;
4434;SDS011;46552;52.150;8.428;2023-06-14T12:47:37;3.10;;;1.80;;
4434;SDS011;46552;52.150;8.428;2023-06-14T12:50:05;3.20;;;1.57;;
4434;SDS011;46552;52.150;8.428;2023-06-14T12:52:34;4.40;;;1.67;;
4434;SDS011;46552;52.150;8.428;2023-06-14T12:55:02;2.47;;;1.57;;
4434;SDS011;46552;52.150;8.428;2023-06-14T12:57:31;3.00;;;1.70;;
4434;SDS011;46552;52.150;8.428;2023-06-14T13:00:01;2.67;;;1.70;;
4434;SDS011;46552;52.150;8.428;2023-06-14T13:02:35;6.10;;;1.93;;
4434;SDS011;46552;52.150;8.428;2023-06-14T13:05:02;3.23;;;1.63;;
4434;SDS011;46552;52.150;8.428;2023-06-14T13:07:30;2.93;;;1.77;;
4434;SDS011;46552;52.150;8.428;2023-06-14T13:09:58;12.03;;;1.80;;
4434;SDS011;46552;52.150;8.428;2023-06-14T13:12:26;6.17;;;1.70;;
4434;SDS011;46552;52.150;8.428;2023-06-14T13:14:53;2.87;;;1.67;;
4434;SDS011;46552;52.150;8.428;2023-06-14T13:17:20;4.03;;;1.87;;
4434;SDS011;46552;52.150;8.428;2023-06-14T13:19:48;4.33;;;1.83;;
4434;SDS011;46552;52.150;8.428;2023-06-14T13:22:16;5.93;;;2.60;;
4434;SDS011;46552;52.150;8.428;2023-06-14T13:24:43;6.23;;;1.60;;
4434;SDS011;46552;52.150;8.428;2023-06-14T13:27:14;5.50;;;2.00;;
4434;SDS011;46552;52.150;8.428;2023-06-14T13:29:41;3.67;;;1.90;;
4434;SDS011;46552;52.150;8.428;2023-06-14T13:32:09;3.40;;;1.93;;
4434;SDS011;46552;52.150;8.428;2023-06-14T13:34:36;3.83;;;1.70;;
4434;SDS011;46552;52.150;8.428;2023-06-14T13:37:03;9.43;;;2.07;;
4434;SDS011;46552;52.150;8.428;2023-06-14T13:39:31;12.30;;;2.60;;
4434;SDS011;46552;52.150;8.428;2023-06-14T13:41:58;5.70;;;2.10;;
4434;SDS011;46552;52.150;8.428;2023-06-14T13:44:27;3.40;;;1.97;;
4434;SDS011;46552;52.150;8.428;2023-06-14T13:46:54;4.80;;;2.13;;
4434;SDS011;46552;52.150;8.428;2023-06-14T13:49:21;6.60;;;2.20;;
4434;SDS011;46552;52.150;8.428;2023-06-14T13:51:49;4.73;;;1.60;;
4434;SDS011;46552;52.150;8.428;2023-06-14T13:54:18;3.30;;;2.30;;
4434;SDS011;46552;52.150;8.428;2023-06-14T13:56:47;3.00;;;1.63;;
4434;SDS011;46552;52.150;8.428;2023-06-14T13:59:14;4.87;;;2.20;;
4434;SDS011;46552;52.150;8.428;2023-06-14T14:01:44;2.33;;;1.53;;
4434;SDS011;46552;52.150;8.428;2023-06-14T14:04:12;3.67;;;1.97;;
4434;SDS011;46552;52.150;8.428;2023-06-14T14:06:40;5.50;;;2.03;;
4434;SDS011;46552;52.150;8.428;2023-06-14T14:09:07;5.57;;;2.20;;
4434;SDS011;46552;52.150;8.428;2023-06-14T14:11:35;3.80;;;1.80;;
4434;SDS011;46552;52.150;8.428;2023-06-14T14:14:03;5.93;;;2.37;;
4434;SDS011;46552;52.150;8.428;2023-06-14T14:16:30;8.77;;;2.13;;
4434;SDS011;46552;52.150;8.428;2023-06-14T14:18:59;4.53;;;2.10;;
4434;SDS011;46552;52.150;8.428;2023-06-14T14:21:27;6.50;;;2.33;;
4434;SDS011;46552;52.150;8.428;2023-06-14T14:23:54;3.60;;;2.23;;
4434;SDS011;46552;52.150;8.428;2023-06-14T14:26:21;6.20;;;2.40;;
4434;SDS011;46552;52.150;8.428;2023-06-14T14:28:49;7.37;;;2.73;;
4434;SDS011;46552;52.150;8.428;2023-06-14T14:31:17;7.40;;;2.10;;
4434;SDS011;46552;52.150;8.428;2023-06-14T14:33:44;3.20;;;2.17;;
4434;SDS011;46552;52.150;8.428;2023-06-14T14:36:14;3.80;;;2.53;;
4434;SDS011;46552;52.150;8.428;2023-06-14T14:38:41;3.20;;;2.17;;
4434;SDS011;46552;52.150;8.428;2023-06-14T14:41:08;4.37;;;2.40;;
4434;SDS011;46552;52.150;8.428;2023-06-14T14:43:35;4.53;;;2.70;;
4434;SDS011;46552;52.150;8.428;2023-06-14T14:46:03;7.70;;;2.37;;
4434;SDS011;46552;52.150;8.428;2023-06-14T14:48:31;13.80;;;3.90;;
4434;SDS011;46552;52.150;8.428;2023-06-14T14:50:58;9.33;;;3.30;;
4434;SDS011;46552;52.150;8.428;2023-06-14T14:53:26;5.87;;;2.67;;
4434;SDS011;46552;52.150;8.428;2023-06-14T14:55:53;4.03;;;2.43;;
4434;SDS011;46552;52.150;8.428;2023-06-14T14:58:21;6.17;;;2.40;;
4434;SDS011;46552;52.150;8.428;2023-06-14T15:00:48;7.80;;;2.90;;
4434;SDS011;46552;52.150;8.428;2023-06-14T15:03:15;9.27;;;2.90;;
4434;SDS011;46552;52.150;8.428;2023-06-14T15:05:43;5.30;;;2.90;;
4434;SDS011;46552;52.150;8.428;2023-06-14T15:08:10;8.73;;;3.03;;
4434;SDS011;46552;52.150;8.428;2023-06-14T15:10:39;7.87;;;2.97;;
4434;SDS011;46552;52.150;8.428;2023-06-14T15:13:08;5.70;;;2.70;;
4434;SDS011;46552;52.150;8.428;2023-06-14T15:15:36;4.40;;;3.07;;
4434;SDS011;46552;52.150;8.428;2023-06-14T15:18:04;15.27;;;3.40;;